sensor_id;sensor_type;location;lat;lon;timestamp;temperature;humidity
45803;DHT22;31504;51.716;9.184;2023-11-19T00:00:02;19.60;58.00
45803;DHT22;31504;51.716;9.184;2023-11-19T00:03:04;19.60;57.90
45803;DHT22;31504;51.716;9.184;2023-11-19T00:06:06;19.60;57.70
45803;DHT22;31504;51.716;9.184;2023-11-19T00:09:06;19.60;57.40
45803;DHT22;31504;51.716;9.184;2023-11-19T00:12:08;19.60;57.30
45803;DHT22;31504;51.716;9.184;2023-11-19T00:15:08;19.70;57.30
45803;DHT22;31504;51.716;9.184;2023-11-19T00:18:11;19.70;57.30
45803;DHT22;31504;51.716;9.184;2023-11-19T00:21:12;19.60;57.20
45803;DHT22;31504;51.716;9.184;2023-11-19T00:24:12;19.50;57.20
45803;DHT22;31504;51.716;9.184;2023-11-19T00:27:13;19.50;57.00
45803;DHT22;31504;51.716;9.184;2023-11-19T00:30:13;19.50;56.70
45803;DHT22;31504;51.716;9.184;2023-11-19T00:33:14;19.60;56.50
45803;DHT22;31504;51.716;9.184;2023-11-19T00:36:15;19.70;56.40
45803;DHT22;31504;51.716;9.184;2023-11-19T00:39:15;19.70;56.30
45803;DHT22;31504;51.716;9.184;2023-11-19T00:42:16;19.70;56.30
45803;DHT22;31504;51.716;9.184;2023-11-19T00:45:16;19.80;56.30
45803;DHT22;31504;51.716;9.184;2023-11-19T00:48:17;19.80;56.60
45803;DHT22;31504;51.716;9.184;2023-11-19T00:51:17;19.70;56.70
45803;DHT22;31504;51.716;9.184;2023-11-19T00:54:17;19.70;56.80
45803;DHT22;31504;51.716;9.184;2023-11-19T00:57:18;19.80;56.90
45803;DHT22;31504;51.716;9.184;2023-11-19T01:00:18;19.80;57.00
45803;DHT22;31504;51.716;9.184;2023-11-19T01:03:19;19.80;57.10
45803;DHT22;31504;51.716;9.184;2023-11-19T01:06:29;19.80;57.20
45803;DHT22;31504;51.716;9.184;2023-11-19T01:09:30;19.80;57.30
45803;DHT22;31504;51.716;9.184;2023-11-19T01:12:32;19.70;57.50
45803;DHT22;31504;51.716;9.184;2023-11-19T01:15:33;19.70;57.40
45803;DHT22;31504;51.716;9.184;2023-11-19T01:18:33;19.70;57.40
45803;DHT22;31504;51.716;9.184;2023-11-19T01:21:34;19.60;57.30
45803;DHT22;31504;51.716;9.184;2023-11-19T01:24:34;19.60;58.00
45803;DHT22;31504;51.716;9.184;2023-11-19T01:27:35;19.70;57.30
45803;DHT22;31504;51.716;9.184;2023-11-19T01:30:35;19.60;57.10
45803;DHT22;31504;51.716;9.184;2023-11-19T01:33:36;19.70;57.10
45803;DHT22;31504;51.716;9.184;2023-11-19T01:36:36;19.70;57.00
45803;DHT22;31504;51.716;9.184;2023-11-19T01:39:37;19.70;56.90
45803;DHT22;31504;51.716;9.184;2023-11-19T01:42:38;19.70;56.90
45803;DHT22;31504;51.716;9.184;2023-11-19T01:45:39;19.70;56.80
45803;DHT22;31504;51.716;9.184;2023-11-19T01:48:41;19.70;56.80
45803;DHT22;31504;51.716;9.184;2023-11-19T01:51:42;19.70;56.80
45803;DHT22;31504;51.716;9.184;2023-11-19T01:54:43;19.70;56.70
45803;DHT22;31504;51.716;9.184;2023-11-19T01:57:43;19.60;56.80
45803;DHT22;31504;51.716;9.184;2023-11-19T02:00:44;19.60;56.90
45803;DHT22;31504;51.716;9.184;2023-11-19T02:03:45;19.60;56.90
45803;DHT22;31504;51.716;9.184;2023-11-19T02:06:47;19.60;56.90
45803;DHT22;31504;51.716;9.184;2023-11-19T02:09:49;19.60;56.90
45803;DHT22;31504;51.716;9.184;2023-11-19T02:12:49;19.60;56.80
45803;DHT22;31504;51.716;9.184;2023-11-19T02:15:50;19.60;56.90
45803;DHT22;31504;51.716;9.184;2023-11-19T02:18:50;19.50;57.00
45803;DHT22;31504;51.716;9.184;2023-11-19T02:21:51;19.50;57.10
45803;DHT22;31504;51.716;9.184;2023-11-19T02:24:54;19.40;57.10
45803;DHT22;31504;51.716;9.184;2023-11-19T02:27:58;19.40;57.10
45803;DHT22;31504;51.716;9.184;2023-11-19T02:30:59;19.40;57.10
45803;DHT22;31504;51.716;9.184;2023-11-19T02:34:00;19.40;57.00
45803;DHT22;31504;51.716;9.184;2023-11-19T02:37:02;19.40;56.90
45803;DHT22;31504;51.716;9.184;2023-11-19T02:40:04;19.40;56.90
45803;DHT22;31504;51.716;9.184;2023-11-19T02:43:05;19.40;56.90
45803;DHT22;31504;51.716;9.184;2023-11-19T02:46:06;19.40;56.90
45803;DHT22;31504;51.716;9.184;2023-11-19T02:49:09;19.40;56.90
45803;DHT22;31504;51.716;9.184;2023-11-19T02:52:10;19.40;56.90
45803;DHT22;31504;51.716;9.184;2023-11-19T02:55:12;19.40;56.80
45803;DHT22;31504;51.716;9.184;2023-11-19T02:58:15;19.40;56.80
45803;DHT22;31504;51.716;9.184;2023-11-19T03:01:25;19.40;56.80
45803;DHT22;31504;51.716;9.184;2023-11-19T03:04:34;19.40;57.40
45803;DHT22;31504;51.716;9.184;2023-11-19T03:07:34;19.40;56.80
45803;DHT22;31504;51.716;9.184;2023-11-19T03:10:35;19.30;56.70
45803;DHT22;31504;51.716;9.184;2023-11-19T03:13:35;19.40;56.60
45803;DHT22;31504;51.716;9.184;2023-11-19T03:16:36;19.30;56.60
45803;DHT22;31504;51.716;9.184;2023-11-19T03:19:36;19.30;56.60
45803;DHT22;31504;51.716;9.184;2023-11-19T03:22:37;19.40;56.60
45803;DHT22;31504;51.716;9.184;2023-11-19T03:25:38;19.30;56.60
45803;DHT22;31504;51.716;9.184;2023-11-19T03:28:38;19.30;56.60
45803;DHT22;31504;51.716;9.184;2023-11-19T03:31:41;19.30;56.60
45803;DHT22;31504;51.716;9.184;2023-11-19T03:34:42;19.30;56.60
45803;DHT22;31504;51.716;9.184;2023-11-19T03:37:42;19.30;56.50
45803;DHT22;31504;51.716;9.184;2023-11-19T03:40:43;19.30;56.50
45803;DHT22;31504;51.716;9.184;2023-11-19T03:43:44;19.30;56.50
45803;DHT22;31504;51.716;9.184;2023-11-19T03:46:44;19.30;56.50
45803;DHT22;31504;51.716;9.184;2023-11-19T03:49:48;19.30;57.10
45803;DHT22;31504;51.716;9.184;2023-11-19T03:52:49;19.30;56.40
45803;DHT22;31504;51.716;9.184;2023-11-19T03:55:49;19.30;56.40
45803;DHT22;31504;51.716;9.184;2023-11-19T03:58:50;19.30;56.40
45803;DHT22;31504;51.716;9.184;2023-11-19T04:01:50;19.30;56.40
45803;DHT22;31504;51.716;9.184;2023-11-19T04:04:51;19.30;56.50
45803;DHT22;31504;51.716;9.184;2023-11-19T04:07:52;19.30;56.40
45803;DHT22;31504;51.716;9.184;2023-11-19T04:10:52;19.30;56.40
45803;DHT22;31504;51.716;9.184;2023-11-19T04:13:53;19.30;56.40
45803;DHT22;31504;51.716;9.184;2023-11-19T04:16:53;19.30;56.30
45803;DHT22;31504;51.716;9.184;2023-11-19T04:19:54;19.30;56.30
45803;DHT22;31504;51.716;9.184;2023-11-19T04:22:54;19.30;56.30
45803;DHT22;31504;51.716;9.184;2023-11-19T04:25:55;19.30;56.20
45803;DHT22;31504;51.716;9.184;2023-11-19T04:28:56;19.30;56.20
45803;DHT22;31504;51.716;9.184;2023-11-19T04:31:57;19.30;56.30
45803;DHT22;31504;51.716;9.184;2023-11-19T04:34:58;19.30;56.30
45803;DHT22;31504;51.716;9.184;2023-11-19T04:37:58;19.30;56.30
45803;DHT22;31504;51.716;9.184;2023-11-19T04:40:59;19.30;56.30
45803;DHT22;31504;51.716;9.184;2023-11-19T04:44:00;19.30;56.30
45803;DHT22;31504;51.716;9.184;2023-11-19T04:47:01;19.30;56.80
45803;DHT22;31504;51.716;9.184;2023-11-19T04:50:01;19.30;56.20
45803;DHT22;31504;51.716;9.184;2023-11-19T04:53:02;19.30;56.20
45803;DHT22;31504;51.716;9.184;2023-11-19T04:56:12;19.30;56.20
45803;DHT22;31504;51.716;9.184;2023-11-19T04:59:13;19.30;56.10
45803;DHT22;31504;51.716;9.184;2023-11-19T05:02:14;19.30;56.10
45803;DHT22;31504;51.716;9.184;2023-11-19T05:05:16;19.30;56.20
45803;DHT22;31504;51.716;9.184;2023-11-19T05:08:16;19.30;56.20
45803;DHT22;31504;51.716;9.184;2023-11-19T05:11:17;19.30;56.10
45803;DHT22;31504;51.716;9.184;2023-11-19T05:14:19;19.30;56.20
45803;DHT22;31504;51.716;9.184;2023-11-19T05:17:21;19.30;56.20
45803;DHT22;31504;51.716;9.184;2023-11-19T05:20:22;19.30;56.20
45803;DHT22;31504;51.716;9.184;2023-11-19T05:23:22;19.30;56.20
45803;DHT22;31504;51.716;9.184;2023-11-19T05:26:23;19.30;56.10
45803;DHT22;31504;51.716;9.184;2023-11-19T05:29:24;19.30;56.10
45803;DHT22;31504;51.716;9.184;2023-11-19T05:32:24;19.30;56.10
45803;DHT22;31504;51.716;9.184;2023-11-19T05:35:25;19.30;56.10
45803;DHT22;31504;51.716;9.184;2023-11-19T05:38:25;19.30;56.10
45803;DHT22;31504;51.716;9.184;2023-11-19T05:41:26;19.30;56.10
45803;DHT22;31504;51.716;9.184;2023-11-19T05:44:26;19.30;56.10
45803;DHT22;31504;51.716;9.184;2023-11-19T05:47:27;19.30;56.10
45803;DHT22;31504;51.716;9.184;2023-11-19T05:50:27;19.30;56.10
45803;DHT22;31504;51.716;9.184;2023-11-19T05:53:27;19.20;56.10
45803;DHT22;31504;51.716;9.184;2023-11-19T05:56:28;19.30;56.10
45803;DHT22;31504;51.716;9.184;2023-11-19T05:59:32;19.20;56.20
45803;DHT22;31504;51.716;9.184;2023-11-19T06:02:33;19.30;56.10
45803;DHT22;31504;51.716;9.184;2023-11-19T06:05:34;19.30;56.10
45803;DHT22;31504;51.716;9.184;2023-11-19T06:08:35;19.30;56.10
45803;DHT22;31504;51.716;9.184;2023-11-19T06:11:35;19.20;56.10
45803;DHT22;31504;51.716;9.184;2023-11-19T06:14:36;19.20;56.20
45803;DHT22;31504;51.716;9.184;2023-11-19T06:17:36;19.20;56.20
45803;DHT22;31504;51.716;9.184;2023-11-19T06:20:37;19.20;56.20
45803;DHT22;31504;51.716;9.184;2023-11-19T06:23:37;19.20;56.20
45803;DHT22;31504;51.716;9.184;2023-11-19T06:26:38;19.20;56.30
45803;DHT22;31504;51.716;9.184;2023-11-19T06:29:39;19.20;56.30
45803;DHT22;31504;51.716;9.184;2023-11-19T06:32:41;19.20;56.20
45803;DHT22;31504;51.716;9.184;2023-11-19T06:35:41;19.30;56.20
45803;DHT22;31504;51.716;9.184;2023-11-19T06:38:42;19.30;56.20
45803;DHT22;31504;51.716;9.184;2023-11-19T06:41:46;19.20;56.10
45803;DHT22;31504;51.716;9.184;2023-11-19T06:44:47;19.20;56.10
45803;DHT22;31504;51.716;9.184;2023-11-19T06:47:47;19.20;56.20
45803;DHT22;31504;51.716;9.184;2023-11-19T06:50:48;19.20;56.30
45803;DHT22;31504;51.716;9.184;2023-11-19T06:53:48;19.20;56.30
45803;DHT22;31504;51.716;9.184;2023-11-19T06:56:49;19.20;56.20
45803;DHT22;31504;51.716;9.184;2023-11-19T06:59:49;19.20;56.10
45803;DHT22;31504;51.716;9.184;2023-11-19T07:02:50;19.30;56.30
45803;DHT22;31504;51.716;9.184;2023-11-19T07:05:53;19.20;56.20
45803;DHT22;31504;51.716;9.184;2023-11-19T07:08:54;19.20;56.30
45803;DHT22;31504;51.716;9.184;2023-11-19T07:11:54;19.10;56.40
45803;DHT22;31504;51.716;9.184;2023-11-19T07:14:55;19.20;56.40
45803;DHT22;31504;51.716;9.184;2023-11-19T07:17:56;19.10;56.40
45803;DHT22;31504;51.716;9.184;2023-11-19T07:20:58;19.20;56.30
45803;DHT22;31504;51.716;9.184;2023-11-19T07:24:00;19.20;56.20
45803;DHT22;31504;51.716;9.184;2023-11-19T07:27:00;19.20;56.20
45803;DHT22;31504;51.716;9.184;2023-11-19T07:30:01;19.20;56.30
45803;DHT22;31504;51.716;9.184;2023-11-19T07:33:01;19.20;56.30
45803;DHT22;31504;51.716;9.184;2023-11-19T07:36:04;19.20;56.30
45803;DHT22;31504;51.716;9.184;2023-11-19T07:39:04;19.20;56.20
45803;DHT22;31504;51.716;9.184;2023-11-19T07:42:05;19.20;56.20
45803;DHT22;31504;51.716;9.184;2023-11-19T07:45:06;19.20;56.20
45803;DHT22;31504;51.716;9.184;2023-11-19T07:48:07;19.20;56.30
45803;DHT22;31504;51.716;9.184;2023-11-19T07:51:08;19.20;56.20
45803;DHT22;31504;51.716;9.184;2023-11-19T07:54:08;19.20;56.20
45803;DHT22;31504;51.716;9.184;2023-11-19T07:57:08;19.20;56.30
45803;DHT22;31504;51.716;9.184;2023-11-19T08:00:09;19.20;56.30
45803;DHT22;31504;51.716;9.184;2023-11-19T08:03:12;19.20;56.40
45803;DHT22;31504;51.716;9.184;2023-11-19T08:06:12;19.20;56.30
45803;DHT22;31504;51.716;9.184;2023-11-19T08:09:13;19.20;56.30
45803;DHT22;31504;51.716;9.184;2023-11-19T08:12:13;19.20;56.30
45803;DHT22;31504;51.716;9.184;2023-11-19T08:15:17;19.20;56.30
45803;DHT22;31504;51.716;9.184;2023-11-19T08:18:18;19.20;56.30
45803;DHT22;31504;51.716;9.184;2023-11-19T08:21:18;19.20;56.20
45803;DHT22;31504;51.716;9.184;2023-11-19T08:24:19;19.20;56.20
45803;DHT22;31504;51.716;9.184;2023-11-19T08:27:19;19.20;56.10
45803;DHT22;31504;51.716;9.184;2023-11-19T08:30:26;19.20;56.30
45803;DHT22;31504;51.716;9.184;2023-11-19T08:33:27;19.20;56.70
45803;DHT22;31504;51.716;9.184;2023-11-19T08:36:27;19.20;56.40
45803;DHT22;31504;51.716;9.184;2023-11-19T08:39:28;19.20;56.50
45803;DHT22;31504;51.716;9.184;2023-11-19T08:42:29;19.20;56.40
45803;DHT22;31504;51.716;9.184;2023-11-19T08:45:30;19.20;56.30
45803;DHT22;31504;51.716;9.184;2023-11-19T08:48:30;19.20;56.30
45803;DHT22;31504;51.716;9.184;2023-11-19T08:51:30;19.20;56.40
45803;DHT22;31504;51.716;9.184;2023-11-19T08:54:31;19.20;56.40
45803;DHT22;31504;51.716;9.184;2023-11-19T08:57:33;19.20;56.30
45803;DHT22;31504;51.716;9.184;2023-11-19T09:00:33;19.20;56.50
45803;DHT22;31504;51.716;9.184;2023-11-19T09:03:34;19.10;56.60
45803;DHT22;31504;51.716;9.184;2023-11-19T09:06:35;19.10;56.50
45803;DHT22;31504;51.716;9.184;2023-11-19T09:09:36;19.20;56.60
45803;DHT22;31504;51.716;9.184;2023-11-19T09:12:36;19.20;57.00
45803;DHT22;31504;51.716;9.184;2023-11-19T09:15:37;19.30;56.40
45803;DHT22;31504;51.716;9.184;2023-11-19T09:18:38;19.30;56.40
45803;DHT22;31504;51.716;9.184;2023-11-19T09:21:38;19.20;56.50
45803;DHT22;31504;51.716;9.184;2023-11-19T09:24:39;19.20;56.70
45803;DHT22;31504;51.716;9.184;2023-11-19T09:27:40;19.10;57.00
45803;DHT22;31504;51.716;9.184;2023-11-19T09:30:40;19.20;57.00
45803;DHT22;31504;51.716;9.184;2023-11-19T09:33:41;19.30;56.80
45803;DHT22;31504;51.716;9.184;2023-11-19T09:36:41;19.30;57.00
45803;DHT22;31504;51.716;9.184;2023-11-19T09:39:44;19.30;57.60
45803;DHT22;31504;51.716;9.184;2023-11-19T09:42:44;19.30;57.10
45803;DHT22;31504;51.716;9.184;2023-11-19T09:45:49;19.30;57.20
45803;DHT22;31504;51.716;9.184;2023-11-19T09:48:51;19.30;57.20
45803;DHT22;31504;51.716;9.184;2023-11-19T09:51:54;19.30;57.20
45803;DHT22;31504;51.716;9.184;2023-11-19T09:54:55;19.40;57.30
45803;DHT22;31504;51.716;9.184;2023-11-19T09:57:56;19.40;57.40
45803;DHT22;31504;51.716;9.184;2023-11-19T10:01:00;19.40;57.60
45803;DHT22;31504;51.716;9.184;2023-11-19T10:04:00;19.40;57.60
45803;DHT22;31504;51.716;9.184;2023-11-19T10:07:01;19.40;57.80
45803;DHT22;31504;51.716;9.184;2023-11-19T10:10:02;19.40;58.00
45803;DHT22;31504;51.716;9.184;2023-11-19T10:13:04;19.30;58.20
45803;DHT22;31504;51.716;9.184;2023-11-19T10:16:08;19.40;58.20
45803;DHT22;31504;51.716;9.184;2023-11-19T10:19:08;19.30;58.10
45803;DHT22;31504;51.716;9.184;2023-11-19T10:22:12;19.40;58.10
45803;DHT22;31504;51.716;9.184;2023-11-19T10:25:27;19.40;58.10
45803;DHT22;31504;51.716;9.184;2023-11-19T10:28:27;19.40;58.10
45803;DHT22;31504;51.716;9.184;2023-11-19T10:31:28;19.40;58.20
45803;DHT22;31504;51.716;9.184;2023-11-19T10:34:29;19.30;58.30
45803;DHT22;31504;51.716;9.184;2023-11-19T10:37:30;19.40;58.40
45803;DHT22;31504;51.716;9.184;2023-11-19T10:40:38;19.40;58.50
45803;DHT22;31504;51.716;9.184;2023-11-19T10:43:42;19.40;58.50
45803;DHT22;31504;51.716;9.184;2023-11-19T10:46:44;19.40;58.60
45803;DHT22;31504;51.716;9.184;2023-11-19T10:49:45;19.40;58.60
45803;DHT22;31504;51.716;9.184;2023-11-19T10:52:48;19.40;58.60
45803;DHT22;31504;51.716;9.184;2023-11-19T10:55:51;19.40;58.80
45803;DHT22;31504;51.716;9.184;2023-11-19T10:58:52;19.30;58.70
45803;DHT22;31504;51.716;9.184;2023-11-19T11:01:54;19.30;59.40
45803;DHT22;31504;51.716;9.184;2023-11-19T11:04:56;19.30;58.90
45803;DHT22;31504;51.716;9.184;2023-11-19T11:07:57;19.40;58.60
45803;DHT22;31504;51.716;9.184;2023-11-19T11:10:59;19.30;58.50
45803;DHT22;31504;51.716;9.184;2023-11-19T11:14:00;19.40;58.50
45803;DHT22;31504;51.716;9.184;2023-11-19T11:17:02;19.40;58.30
45803;DHT22;31504;51.716;9.184;2023-11-19T11:20:03;19.40;58.40
45803;DHT22;31504;51.716;9.184;2023-11-19T11:26:09;19.40;58.50
45803;DHT22;31504;51.716;9.184;2023-11-19T11:29:26;19.40;58.50
45803;DHT22;31504;51.716;9.184;2023-11-19T11:32:32;19.40;58.40
45803;DHT22;31504;51.716;9.184;2023-11-19T11:36:38;19.40;58.30
45803;DHT22;31504;51.716;9.184;2023-11-19T11:39:05;19.40;58.40
45803;DHT22;31504;51.716;9.184;2023-11-19T11:45:17;19.40;58.40
45803;DHT22;31504;51.716;9.184;2023-11-19T11:48:19;19.50;58.40
45803;DHT22;31504;51.716;9.184;2023-11-19T11:51:28;19.40;59.00
45803;DHT22;31504;51.716;9.184;2023-11-19T11:54:41;19.40;58.40
45803;DHT22;31504;51.716;9.184;2023-11-19T11:57:41;19.40;58.40
45803;DHT22;31504;51.716;9.184;2023-11-19T12:00:42;19.40;58.40
45803;DHT22;31504;51.716;9.184;2023-11-19T12:03:42;19.40;58.40
45803;DHT22;31504;51.716;9.184;2023-11-19T12:06:45;19.40;58.40
45803;DHT22;31504;51.716;9.184;2023-11-19T12:10:06;19.40;58.40
45803;DHT22;31504;51.716;9.184;2023-11-19T12:13:08;19.40;58.40
45803;DHT22;31504;51.716;9.184;2023-11-19T12:16:09;19.40;58.50
45803;DHT22;31504;51.716;9.184;2023-11-19T12:19:10;19.40;58.30
45803;DHT22;31504;51.716;9.184;2023-11-19T12:22:11;19.40;58.30
45803;DHT22;31504;51.716;9.184;2023-11-19T12:25:11;19.50;58.30
45803;DHT22;31504;51.716;9.184;2023-11-19T12:28:12;19.40;58.30
45803;DHT22;31504;51.716;9.184;2023-11-19T12:31:13;19.40;58.20
45803;DHT22;31504;51.716;9.184;2023-11-19T12:34:14;19.40;58.20
45803;DHT22;31504;51.716;9.184;2023-11-19T12:37:15;19.40;58.80
45803;DHT22;31504;51.716;9.184;2023-11-19T12:40:33;19.40;58.20
45803;DHT22;31504;51.716;9.184;2023-11-19T12:43:34;19.40;58.30
45803;DHT22;31504;51.716;9.184;2023-11-19T12:46:36;19.40;58.20
45803;DHT22;31504;51.716;9.184;2023-11-19T12:49:36;19.30;58.20
45803;DHT22;31504;51.716;9.184;2023-11-19T12:52:37;19.40;58.20
45803;DHT22;31504;51.716;9.184;2023-11-19T12:55:37;19.40;58.10
45803;DHT22;31504;51.716;9.184;2023-11-19T12:58:38;19.40;58.00
45803;DHT22;31504;51.716;9.184;2023-11-19T13:01:39;19.30;57.90
45803;DHT22;31504;51.716;9.184;2023-11-19T13:04:41;19.30;58.00
45803;DHT22;31504;51.716;9.184;2023-11-19T13:07:41;19.30;58.00
45803;DHT22;31504;51.716;9.184;2023-11-19T13:14:00;19.30;57.90
45803;DHT22;31504;51.716;9.184;2023-11-19T13:17:01;19.30;57.80
45803;DHT22;31504;51.716;9.184;2023-11-19T13:20:02;19.30;57.80
45803;DHT22;31504;51.716;9.184;2023-11-19T13:23:04;19.30;57.80
45803;DHT22;31504;51.716;9.184;2023-11-19T13:26:05;19.30;57.80
45803;DHT22;31504;51.716;9.184;2023-11-19T13:29:06;19.30;57.70
45803;DHT22;31504;51.716;9.184;2023-11-19T13:32:06;19.30;57.60
45803;DHT22;31504;51.716;9.184;2023-11-19T13:35:07;19.30;57.60
45803;DHT22;31504;51.716;9.184;2023-11-19T13:38:09;19.30;57.60
45803;DHT22;31504;51.716;9.184;2023-11-19T13:41:09;19.30;57.60
45803;DHT22;31504;51.716;9.184;2023-11-19T13:44:11;19.30;57.60
45803;DHT22;31504;51.716;9.184;2023-11-19T13:47:11;19.30;57.60
45803;DHT22;31504;51.716;9.184;2023-11-19T13:50:14;19.30;57.60
45803;DHT22;31504;51.716;9.184;2023-11-19T13:53:14;19.30;57.60
45803;DHT22;31504;51.716;9.184;2023-11-19T13:56:15;19.30;57.70
45803;DHT22;31504;51.716;9.184;2023-11-19T13:59:15;19.30;57.80
45803;DHT22;31504;51.716;9.184;2023-11-19T14:02:16;19.30;57.70
45803;DHT22;31504;51.716;9.184;2023-11-19T14:05:17;19.30;57.60
45803;DHT22;31504;51.716;9.184;2023-11-19T14:08:17;19.30;57.60
45803;DHT22;31504;51.716;9.184;2023-11-19T14:11:18;19.30;57.50
45803;DHT22;31504;51.716;9.184;2023-11-19T14:14:18;19.30;57.50
45803;DHT22;31504;51.716;9.184;2023-11-19T14:17:19;19.30;57.50
45803;DHT22;31504;51.716;9.184;2023-11-19T14:20:19;19.30;57.50
45803;DHT22;31504;51.716;9.184;2023-11-19T14:23:20;19.30;57.50
45803;DHT22;31504;51.716;9.184;2023-11-19T14:26:21;19.30;57.50
45803;DHT22;31504;51.716;9.184;2023-11-19T14:29:21;19.30;57.40
45803;DHT22;31504;51.716;9.184;2023-11-19T14:32:22;19.30;57.50
45803;DHT22;31504;51.716;9.184;2023-11-19T14:35:22;19.30;57.40
45803;DHT22;31504;51.716;9.184;2023-11-19T14:38:23;19.30;57.30
45803;DHT22;31504;51.716;9.184;2023-11-19T14:41:23;19.30;57.90
45803;DHT22;31504;51.716;9.184;2023-11-19T14:44:24;19.30;57.20
45803;DHT22;31504;51.716;9.184;2023-11-19T14:47:24;19.30;57.20
45803;DHT22;31504;51.716;9.184;2023-11-19T14:50:25;19.30;57.30
45803;DHT22;31504;51.716;9.184;2023-11-19T14:53:25;19.30;57.30
45803;DHT22;31504;51.716;9.184;2023-11-19T14:56:26;19.30;57.30
45803;DHT22;31504;51.716;9.184;2023-11-19T14:59:27;19.30;57.30
45803;DHT22;31504;51.716;9.184;2023-11-19T15:02:28;19.30;57.40
45803;DHT22;31504;51.716;9.184;2023-11-19T15:05:28;19.30;57.30
45803;DHT22;31504;51.716;9.184;2023-11-19T15:08:29;19.30;57.30
45803;DHT22;31504;51.716;9.184;2023-11-19T15:11:30;19.30;57.30
45803;DHT22;31504;51.716;9.184;2023-11-19T15:14:31;19.30;57.20
45803;DHT22;31504;51.716;9.184;2023-11-19T15:17:31;19.30;57.20
45803;DHT22;31504;51.716;9.184;2023-11-19T15:20:31;19.30;57.20
45803;DHT22;31504;51.716;9.184;2023-11-19T15:23:32;19.40;57.20
45803;DHT22;31504;51.716;9.184;2023-11-19T15:26:35;19.40;57.80
45803;DHT22;31504;51.716;9.184;2023-11-19T15:29:36;19.30;57.30
45803;DHT22;31504;51.716;9.184;2023-11-19T15:32:37;19.40;57.30
45803;DHT22;31504;51.716;9.184;2023-11-19T15:35:38;19.40;57.30
45803;DHT22;31504;51.716;9.184;2023-11-19T15:38:42;19.40;57.50
45803;DHT22;31504;51.716;9.184;2023-11-19T15:41:42;19.40;57.60
45803;DHT22;31504;51.716;9.184;2023-11-19T15:48:20;19.50;57.80
45803;DHT22;31504;51.716;9.184;2023-11-19T15:51:21;19.50;57.80
45803;DHT22;31504;51.716;9.184;2023-11-19T15:54:21;19.50;57.90
45803;DHT22;31504;51.716;9.184;2023-11-19T15:57:22;19.50;58.00
45803;DHT22;31504;51.716;9.184;2023-11-19T16:00:23;19.50;57.90
45803;DHT22;31504;51.716;9.184;2023-11-19T16:03:23;19.50;58.00
45803;DHT22;31504;51.716;9.184;2023-11-19T16:06:24;19.50;58.00
45803;DHT22;31504;51.716;9.184;2023-11-19T16:09:25;19.50;58.10
45803;DHT22;31504;51.716;9.184;2023-11-19T16:12:27;19.50;58.10
45803;DHT22;31504;51.716;9.184;2023-11-19T16:15:27;19.50;58.10
45803;DHT22;31504;51.716;9.184;2023-11-19T16:18:28;19.50;58.10
45803;DHT22;31504;51.716;9.184;2023-11-19T16:21:28;19.50;58.10
45803;DHT22;31504;51.716;9.184;2023-11-19T16:24:29;19.50;58.10
45803;DHT22;31504;51.716;9.184;2023-11-19T16:27:29;19.50;58.10
45803;DHT22;31504;51.716;9.184;2023-11-19T16:30:30;19.50;58.00
45803;DHT22;31504;51.716;9.184;2023-11-19T16:33:30;19.50;58.00
45803;DHT22;31504;51.716;9.184;2023-11-19T16:36:31;19.50;58.10
45803;DHT22;31504;51.716;9.184;2023-11-19T16:39:31;19.50;58.00
45803;DHT22;31504;51.716;9.184;2023-11-19T16:42:32;19.50;58.00
45803;DHT22;31504;51.716;9.184;2023-11-19T16:45:32;19.50;58.00
45803;DHT22;31504;51.716;9.184;2023-11-19T16:48:33;19.50;58.10
45803;DHT22;31504;51.716;9.184;2023-11-19T16:51:34;19.50;58.10
45803;DHT22;31504;51.716;9.184;2023-11-19T16:54:34;19.50;58.20
45803;DHT22;31504;51.716;9.184;2023-11-19T16:57:35;19.50;58.30
45803;DHT22;31504;51.716;9.184;2023-11-19T17:00:36;19.50;58.30
45803;DHT22;31504;51.716;9.184;2023-11-19T17:03:42;19.50;58.30
45803;DHT22;31504;51.716;9.184;2023-11-19T17:06:42;19.60;58.30
45803;DHT22;31504;51.716;9.184;2023-11-19T17:09:43;19.50;58.30
45803;DHT22;31504;51.716;9.184;2023-11-19T17:12:44;19.50;58.40
45803;DHT22;31504;51.716;9.184;2023-11-19T17:15:44;19.50;58.40
45803;DHT22;31504;51.716;9.184;2023-11-19T17:18:45;19.50;58.40
45803;DHT22;31504;51.716;9.184;2023-11-19T17:21:45;19.50;58.50
45803;DHT22;31504;51.716;9.184;2023-11-19T17:24:46;19.50;58.50
45803;DHT22;31504;51.716;9.184;2023-11-19T17:27:46;19.50;58.50
45803;DHT22;31504;51.716;9.184;2023-11-19T17:30:47;19.50;58.50
45803;DHT22;31504;51.716;9.184;2023-11-19T17:33:47;19.50;58.50
45803;DHT22;31504;51.716;9.184;2023-11-19T17:36:48;19.40;58.50
45803;DHT22;31504;51.716;9.184;2023-11-19T17:39:48;19.50;58.40
45803;DHT22;31504;51.716;9.184;2023-11-19T17:42:49;19.40;58.40
45803;DHT22;31504;51.716;9.184;2023-11-19T17:45:50;19.40;58.40
45803;DHT22;31504;51.716;9.184;2023-11-19T17:48:50;19.40;58.40
45803;DHT22;31504;51.716;9.184;2023-11-19T17:51:52;19.40;58.30
45803;DHT22;31504;51.716;9.184;2023-11-19T17:54:52;19.40;58.30
45803;DHT22;31504;51.716;9.184;2023-11-19T17:57:53;19.40;58.20
45803;DHT22;31504;51.716;9.184;2023-11-19T18:00:53;19.40;58.20
45803;DHT22;31504;51.716;9.184;2023-11-19T18:03:54;19.40;58.10
45803;DHT22;31504;51.716;9.184;2023-11-19T18:06:54;19.40;58.00
45803;DHT22;31504;51.716;9.184;2023-11-19T18:09:55;19.40;58.00
45803;DHT22;31504;51.716;9.184;2023-11-19T18:12:55;19.40;58.00
45803;DHT22;31504;51.716;9.184;2023-11-19T18:15:56;19.40;58.00
45803;DHT22;31504;51.716;9.184;2023-11-19T18:18:56;19.40;58.00
45803;DHT22;31504;51.716;9.184;2023-11-19T18:21:57;19.40;57.90
45803;DHT22;31504;51.716;9.184;2023-11-19T18:24:58;19.40;57.90
45803;DHT22;31504;51.716;9.184;2023-11-19T18:28:00;19.40;57.90
45803;DHT22;31504;51.716;9.184;2023-11-19T18:31:01;19.40;57.90
45803;DHT22;31504;51.716;9.184;2023-11-19T18:34:01;19.40;57.90
45803;DHT22;31504;51.716;9.184;2023-11-19T18:37:02;19.40;57.80
45803;DHT22;31504;51.716;9.184;2023-11-19T18:40:04;19.40;57.80
45803;DHT22;31504;51.716;9.184;2023-11-19T18:43:05;19.40;57.80
45803;DHT22;31504;51.716;9.184;2023-11-19T18:46:06;19.40;57.70
45803;DHT22;31504;51.716;9.184;2023-11-19T18:49:08;19.40;57.70
45803;DHT22;31504;51.716;9.184;2023-11-19T18:52:09;19.40;57.70
45803;DHT22;31504;51.716;9.184;2023-11-19T18:55:09;19.40;57.70
45803;DHT22;31504;51.716;9.184;2023-11-19T18:58:10;19.40;57.70
45803;DHT22;31504;51.716;9.184;2023-11-19T19:01:11;19.40;57.70
45803;DHT22;31504;51.716;9.184;2023-11-19T19:04:13;19.40;57.70
45803;DHT22;31504;51.716;9.184;2023-11-19T19:07:14;19.40;57.70
45803;DHT22;31504;51.716;9.184;2023-11-19T19:10:15;19.40;57.70
45803;DHT22;31504;51.716;9.184;2023-11-19T19:13:15;19.40;57.70
45803;DHT22;31504;51.716;9.184;2023-11-19T19:16:16;19.40;57.70